createdAt,value
2019-02-16T14:59:10.394Z,98721.86
2019-02-16T15:01:38.807Z,98725.48
2019-02-16T15:04:07.322Z,98723.88
2019-02-16T15:06:39.054Z,98725.14
2019-02-16T15:09:07.666Z,98721.72
2019-02-16T15:11:36.596Z,98718.08
2019-02-16T15:14:07.077Z,98721.67
2019-02-16T15:16:36.180Z,98723.03
2019-02-16T15:19:04.514Z,98717.59
2019-02-16T15:21:33.643Z,98721.23
2019-02-16T15:24:03.763Z,98708.73
2019-02-16T15:26:32.524Z,98717.83
2019-02-16T15:29:01.020Z,98719.52
2019-02-16T15:31:29.365Z,98715.59
2019-02-16T15:34:00.499Z,98714.37
2019-02-16T15:36:29.567Z,98713.70
2019-02-16T15:38:59.640Z,98712.09
2019-02-16T15:41:30.005Z,98708.91
2019-02-16T15:43:58.417Z,98711.27
2019-02-16T15:46:27.346Z,98710.41
2019-02-16T15:48:56.336Z,98707.97
2019-02-16T15:51:24.718Z,98702.16
2019-02-16T15:53:54.566Z,98705.13
2019-02-16T15:56:23.013Z,98704.97
2019-02-16T15:58:54.422Z,98705.52
2019-02-16T16:01:27.474Z,98700.23
2019-02-16T16:03:55.799Z,98696.03
2019-02-16T16:06:24.227Z,98699.18
2019-02-16T16:08:54.302Z,98696.14
2019-02-16T16:11:24.386Z,98693.65
2019-02-16T16:13:54.716Z,98696.05
2019-02-16T16:16:40.517Z,98697.37
2019-02-16T16:19:19.148Z,98703.05
2019-02-16T16:21:58.263Z,98701.47
2019-02-16T16:24:32.578Z,98702.48
2019-02-16T16:27:08.149Z,98701.46
2019-02-16T16:29:47.920Z,98701.98
2019-02-16T16:32:35.328Z,98696.86
2019-02-16T16:35:08.432Z,98698.80
2019-02-16T16:37:55.591Z,98695.45
2019-02-16T16:40:31.702Z,98701.73
2019-02-16T16:43:14.385Z,98695.13
2019-02-16T16:45:51.371Z,98709.23
2019-02-16T16:48:21.769Z,98709.72
2019-02-16T16:50:52.629Z,98711.59
2019-02-16T16:53:39.236Z,98709.54
2019-02-16T16:56:09.377Z,98712.89
2019-02-16T16:58:39.636Z,98709.55
2019-02-16T17:01:09.863Z,98712.73
2019-02-16T17:03:54.412Z,98715.98
2019-02-16T17:06:36.641Z,98718.77
2019-02-16T17:09:24.359Z,98720.18
2019-02-16T17:12:09.294Z,98726.91
2019-02-16T17:14:55.258Z,98726.47
2019-02-16T17:17:25.357Z,98738.13
2019-02-16T17:20:07.274Z,98740.12
2019-02-16T17:22:52.416Z,98741.48
2019-02-16T17:25:41.634Z,98748.72
2019-02-16T17:28:11.789Z,98746.13
2019-02-16T17:30:44.433Z,98752.05
2019-02-16T17:33:17.224Z,98750.17
2019-02-16T17:35:52.991Z,98753.67
2019-02-16T17:38:25.870Z,98756.10
2019-02-16T17:41:05.028Z,98761.80
2019-02-16T17:43:36.490Z,98763.00
2019-02-16T17:46:09.685Z,98771.64
2019-02-16T17:48:46.037Z,98764.48
2019-02-16T17:51:21.797Z,98773.11
2019-02-16T17:54:09.878Z,98771.22
2019-02-16T17:56:57.749Z,98766.34
2019-02-16T17:59:39.970Z,98765.55
2019-02-16T18:02:12.689Z,98772.34
2019-02-16T18:04:49.420Z,98774.01
2019-02-16T18:07:31.363Z,98765.48
2019-02-16T18:10:02.289Z,98771.01
2019-02-16T18:12:35.396Z,98775.09
2019-02-16T18:15:17.555Z,98770.31
2019-02-16T18:17:50.463Z,98768.60
2019-02-16T18:20:29.620Z,98773.53
2019-02-16T18:23:02.392Z,98769.20
2019-02-16T18:25:48.868Z,98772.86
2019-02-16T18:28:28.310Z,98770.03
2019-02-16T18:31:01.107Z,98771.14
2019-02-16T18:33:34.363Z,98769.50
2019-02-16T18:36:13.519Z,98772.97
2019-02-16T18:38:58.319Z,98767.03
2019-02-16T18:41:40.537Z,98771.48
2019-02-16T18:44:16.896Z,98765.34
2019-02-16T18:46:56.025Z,98763.65
2019-02-16T18:49:38.454Z,98759.90
2019-02-16T18:52:10.803Z,98760.12
2019-02-16T18:54:58.425Z,98756.20
2019-02-16T18:57:35.548Z,98756.20
2019-02-16T19:00:08.351Z,98745.16
2019-02-16T19:02:44.579Z,98745.16
2019-02-16T19:05:17.735Z,98749.73
2019-02-16T19:07:50.555Z,98752.20
2019-02-16T19:10:21.179Z,98752.20
2019-02-16T19:12:51.387Z,98755.20
2019-02-16T19:15:21.430Z,98754.11
2019-02-16T19:18:00.039Z,98750.77
2019-02-16T19:20:37.283Z,98751.27
2019-02-16T19:23:17.457Z,98751.25
2019-02-16T19:25:53.375Z,98751.25
2019-02-16T19:28:38.415Z,98752.96
2019-02-16T19:31:20.523Z,98752.65
2019-02-16T19:34:07.012Z,98750.28
2019-02-16T19:36:50.434Z,98750.28
2019-02-16T19:39:26.447Z,98755.56
2019-02-16T19:42:02.591Z,98743.45
2019-02-16T19:44:34.115Z,98743.45
2019-02-16T19:47:12.955Z,98747.19
2019-02-16T19:50:00.809Z,98748.98
2019-02-16T19:52:36.963Z,98735.20
2019-02-16T19:55:22.781Z,98741.75
2019-02-16T19:57:56.053Z,98732.92
2019-02-16T20:00:26.155Z,98741.80
2019-02-16T20:03:04.941Z,98741.80
2019-02-16T20:05:37.556Z,98738.34
2019-02-16T20:08:10.476Z,98739.11
2019-02-16T20:10:40.544Z,98739.11
2019-02-16T20:13:16.373Z,98742.92
2019-02-16T20:15:55.323Z,98739.85
2019-02-16T20:18:34.189Z,98739.85
2019-02-16T20:21:14.504Z,98748.97
2019-02-16T20:23:44.525Z,98747.59
2019-02-16T20:26:29.495Z,98743.41
2019-02-16T20:29:01.246Z,98750.81
2019-02-16T20:31:35.115Z,98751.27
2019-02-16T20:34:09.012Z,98745.13
2019-02-16T20:36:40.248Z,98745.66
2019-02-16T20:39:27.430Z,98743.91
2019-02-16T20:42:13.210Z,98742.19
2019-02-16T20:44:45.756Z,98741.51
2019-02-16T20:47:16.342Z,98741.51
2019-02-16T20:49:53.844Z,98751.28
2019-02-16T20:52:32.712Z,98753.20
2019-02-16T20:55:15.657Z,98754.12
2019-02-16T20:58:02.778Z,98753.02
2019-02-16T21:00:36.904Z,98747.33
2019-02-16T21:03:08.464Z,98751.68
2019-02-16T21:05:42.451Z,98751.68
2019-02-16T21:08:12.461Z,98756.39
2019-02-16T21:10:43.006Z,98749.95
2019-02-16T21:13:15.252Z,98739.26
2019-02-16T21:15:50.119Z,98743.55
2019-02-16T21:18:22.482Z,98744.25
2019-02-16T21:21:09.669Z,98750.55
2019-02-16T21:23:43.164Z,98746.79
2019-02-16T21:26:36.475Z,98738.61
2019-02-16T21:29:04.843Z,98744.27
2019-02-16T21:31:51.787Z,98748.08
2019-02-16T21:34:40.499Z,98733.97
2019-02-16T21:37:14.503Z,98742.94
2019-02-16T21:39:44.441Z,98732.74
2019-02-16T21:42:14.717Z,98742.01
2019-02-16T21:44:48.614Z,98739.36
2019-02-16T21:47:27.594Z,98739.20
2019-02-16T21:49:59.941Z,98742.09
2019-02-16T21:52:40.729Z,98737.28
2019-02-16T21:55:18.387Z,98741.40
2019-02-16T21:57:52.620Z,98742.56
2019-02-16T22:00:29.330Z,98735.48
2019-02-16T22:03:12.536Z,98735.73
2019-02-16T22:05:49.083Z,98733.75
2019-02-16T22:08:25.858Z,98735.73
2019-02-16T22:11:13.296Z,98728.23
2019-02-16T22:13:43.288Z,98728.02
2019-02-16T22:16:13.419Z,98731.18
2019-02-16T22:18:44.683Z,98729.84
2019-02-16T22:21:14.748Z,98737.08
2019-02-16T22:23:46.370Z,98738.39
2019-02-16T22:26:16.122Z,98730.48
2019-02-16T22:28:45.885Z,98723.95
2019-02-16T22:31:17.785Z,98729.83
2019-02-16T22:33:46.753Z,98724.58
2019-02-16T22:36:15.544Z,98726.42
2019-02-16T22:38:45.437Z,98728.11
2019-02-16T22:41:15.666Z,98732.23
2019-02-16T22:43:45.977Z,98727.61
2019-02-16T22:46:16.217Z,98727.20
2019-02-16T22:48:46.116Z,98730.65
2019-02-16T22:51:15.631Z,98687.36
2019-02-16T22:53:45.477Z,98727.94
2019-02-16T22:56:15.949Z,98723.38
2019-02-16T22:58:46.746Z,98722.34
2019-02-16T23:01:17.005Z,98720.36
2019-02-16T23:03:48.886Z,98721.55
2019-02-16T23:06:18.691Z,98720.23
2019-02-16T23:08:51.264Z,98730.27
2019-02-16T23:11:20.937Z,98725.91
2019-02-16T23:13:50.994Z,98722.83
2019-02-16T23:16:21.550Z,98725.94
2019-02-16T23:18:51.569Z,98722.28
2019-02-16T23:21:19.904Z,98719.13
2019-02-16T23:23:48.838Z,98725.42
2019-02-16T23:26:18.221Z,98715.08
2019-02-16T23:28:47.968Z,98726.38
2019-02-16T23:31:19.460Z,98723.19
2019-02-16T23:33:49.033Z,98717.08
2019-02-16T23:36:19.332Z,98716.56
2019-02-16T23:38:48.214Z,98714.70
2019-02-16T23:41:17.228Z,98712.93
2019-02-16T23:43:46.923Z,98721.06
2019-02-16T23:46:16.409Z,98715.95
2019-02-16T23:48:45.812Z,98719.72
2019-02-16T23:51:15.756Z,98714.31
2019-02-16T23:53:45.526Z,98714.03
2019-02-16T23:56:15.439Z,98715.00
2019-02-16T23:58:49.188Z,98714.56
